createdAt,value
2022-12-03T00:01:35.145Z,-0.36
2022-12-03T00:04:05.988Z,-0.36
2022-12-03T00:06:38.272Z,-0.35
2022-12-03T00:09:08.696Z,-0.34
2022-12-03T00:11:40.756Z,-0.33
2022-12-03T00:14:41.297Z,-0.31
2022-12-03T00:17:16.569Z,-0.32
2022-12-03T00:19:48.748Z,-0.33
2022-12-03T00:22:21.158Z,-0.34
2022-12-03T00:24:53.758Z,-0.33
2022-12-03T00:27:26.447Z,-0.34
2022-12-03T00:29:56.990Z,-0.33
2022-12-03T00:32:29.106Z,-0.35
2022-12-03T00:34:59.485Z,-0.36
2022-12-03T00:37:31.775Z,-0.38
2022-12-03T00:40:04.283Z,-0.38
2022-12-03T00:42:36.400Z,-0.38
2022-12-03T00:45:10.393Z,-0.38
2022-12-03T00:47:42.637Z,-0.37
2022-12-03T00:50:13.634Z,-0.38
2022-12-03T00:52:45.646Z,-0.40
2022-12-03T00:55:18.308Z,-0.41
2022-12-03T00:57:50.453Z,-0.42
2022-12-03T01:00:24.689Z,-0.42
2022-12-03T01:02:57.464Z,-0.40
2022-12-03T01:05:29.658Z,-0.39
2022-12-03T01:08:02.007Z,-0.39
2022-12-03T01:10:34.183Z,-0.39
2022-12-03T01:13:04.796Z,-0.39
2022-12-03T01:15:37.014Z,-0.38
2022-12-03T01:18:09.417Z,-0.35
2022-12-03T01:20:39.928Z,-0.34
2022-12-03T01:23:12.078Z,-0.36
2022-12-03T01:25:44.963Z,-0.37
2022-12-03T01:28:15.423Z,-0.38
2022-12-03T01:31:05.212Z,-0.38
2022-12-03T01:33:37.335Z,-0.37
2022-12-03T01:36:08.118Z,-0.34
2022-12-03T01:38:40.208Z,-0.33
2022-12-03T01:41:12.392Z,-0.32
2022-12-03T01:43:44.800Z,-0.32
2022-12-03T01:46:21.145Z,-0.32
2022-12-03T01:48:56.042Z,-0.32
2022-12-03T01:51:28.226Z,-0.30
2022-12-03T01:53:59.199Z,-0.27
2022-12-03T01:56:31.246Z,-0.26
2022-12-03T01:59:01.817Z,-0.26
2022-12-03T02:01:33.951Z,-0.26
2022-12-03T02:04:04.606Z,-0.26
2022-12-03T02:06:37.008Z,-0.24
2022-12-03T02:09:08.728Z,-0.24
2022-12-03T02:11:45.600Z,-0.23
2022-12-03T02:14:21.125Z,-0.23
2022-12-03T02:16:53.259Z,-0.23
2022-12-03T02:19:26.380Z,-0.22
2022-12-03T02:22:06.521Z,-0.22
2022-12-03T02:24:47.825Z,-0.23
2022-12-03T02:27:19.832Z,-0.25
2022-12-03T02:29:52.389Z,-0.25
2022-12-03T02:32:25.022Z,-0.25
2022-12-03T02:34:57.457Z,-0.24
2022-12-03T02:37:30.773Z,-0.22
2022-12-03T02:40:05.596Z,-0.22
2022-12-03T02:42:37.915Z,-0.22
2022-12-03T02:45:16.313Z,-0.21
2022-12-03T02:47:50.947Z,-0.20
2022-12-03T02:50:27.458Z,-0.20
2022-12-03T02:53:02.592Z,-0.19
2022-12-03T02:55:37.394Z,-0.18
2022-12-03T02:58:10.829Z,-0.16
2022-12-03T03:00:43.789Z,-0.14
2022-12-03T03:03:17.920Z,-0.14
2022-12-03T03:05:52.130Z,-0.14
2022-12-03T03:08:26.219Z,-0.14
2022-12-03T03:11:01.074Z,-0.14
2022-12-03T03:13:35.081Z,-0.15
2022-12-03T03:16:09.114Z,-0.13
2022-12-03T03:18:41.514Z,-0.13
2022-12-03T03:21:14.823Z,-0.14
2022-12-03T03:23:46.876Z,-0.13
2022-12-03T03:26:17.569Z,-0.12
2022-12-03T03:28:52.319Z,-0.11
2022-12-03T03:31:26.349Z,-0.09
2022-12-03T03:33:58.585Z,-0.09
2022-12-03T03:36:29.087Z,-0.09
2022-12-03T03:39:01.233Z,-0.09
2022-12-03T03:41:33.926Z,-0.07
2022-12-03T03:44:07.819Z,-0.06
2022-12-03T03:46:41.136Z,-0.06
2022-12-03T03:49:13.599Z,-0.06
2022-12-03T03:51:45.853Z,-0.05
2022-12-03T03:54:16.574Z,-0.06
2022-12-03T03:56:48.841Z,-0.06
2022-12-03T03:59:21.059Z,-0.07
2022-12-03T04:01:51.566Z,-0.07
2022-12-03T04:04:26.814Z,-0.07
2022-12-03T04:06:59.793Z,-0.07
2022-12-03T04:09:31.853Z,-0.07
2022-12-03T04:12:19.954Z,-0.06
2022-12-03T04:14:52.364Z,-0.06
2022-12-03T04:17:24.663Z,-0.06
2022-12-03T04:19:56.868Z,-0.06
2022-12-03T04:22:40.982Z,-0.07
2022-12-03T04:25:30.585Z,-0.09
2022-12-03T04:28:20.307Z,-0.11
2022-12-03T04:30:52.444Z,-0.11
2022-12-03T04:33:40.611Z,-0.12
2022-12-03T04:36:13.170Z,-0.15
2022-12-03T04:38:46.039Z,-0.16
2022-12-03T04:41:18.200Z,-0.15
2022-12-03T04:44:04.449Z,-0.14
2022-12-03T04:46:36.574Z,-0.14
2022-12-03T04:49:07.301Z,-0.13
2022-12-03T04:51:39.410Z,-0.13
2022-12-03T04:54:09.844Z,-0.12
2022-12-03T04:56:42.160Z,-0.12
2022-12-03T04:59:16.754Z,-0.12
2022-12-03T05:01:49.101Z,-0.10
2022-12-03T05:04:21.262Z,-0.09
2022-12-03T05:06:53.391Z,-0.07
2022-12-03T05:09:25.801Z,-0.06
2022-12-03T05:11:57.910Z,-0.05
2022-12-03T05:14:29.844Z,-0.05
2022-12-03T05:17:02.139Z,-0.05
2022-12-03T05:19:51.839Z,-0.05
2022-12-03T05:22:23.975Z,-0.03
2022-12-03T05:24:56.335Z,-0.02
2022-12-03T05:27:28.694Z,0.00
2022-12-03T05:30:01.023Z,0.02
2022-12-03T05:32:33.457Z,0.03
2022-12-03T05:35:03.937Z,0.05
2022-12-03T05:37:36.149Z,0.06
2022-12-03T05:40:10.878Z,0.08
2022-12-03T05:42:56.795Z,0.11
2022-12-03T05:45:30.732Z,0.13
2022-12-03T05:48:03.591Z,0.16
2022-12-03T05:50:38.510Z,0.18
2022-12-03T05:53:20.172Z,0.18
2022-12-03T05:55:52.248Z,0.18
2022-12-03T05:58:24.640Z,0.18
2022-12-03T06:00:56.734Z,0.18
2022-12-03T06:03:28.892Z,0.18
2022-12-03T06:06:01.964Z,0.18
2022-12-03T06:08:34.120Z,0.19
2022-12-03T06:11:06.396Z,0.20
2022-12-03T06:13:38.384Z,0.20
2022-12-03T06:16:10.675Z,0.20
2022-12-03T06:18:42.749Z,0.19
2022-12-03T06:21:15.139Z,0.20
2022-12-03T06:23:45.619Z,0.20
2022-12-03T06:26:18.009Z,0.17
2022-12-03T06:28:50.420Z,0.16
2022-12-03T06:31:23.283Z,0.16
2022-12-03T06:33:55.520Z,0.16
2022-12-03T06:36:28.538Z,0.16
2022-12-03T06:39:00.541Z,0.18
2022-12-03T06:41:32.712Z,0.21
2022-12-03T06:44:03.185Z,0.22
2022-12-03T06:46:35.638Z,0.23
2022-12-03T06:49:09.408Z,0.26
2022-12-03T06:51:41.623Z,0.29
2022-12-03T06:54:12.019Z,0.31
2022-12-03T06:56:45.601Z,0.30
2022-12-03T06:59:17.779Z,0.32
2022-12-03T07:01:49.987Z,0.35
2022-12-03T07:04:22.125Z,0.38
2022-12-03T07:06:54.170Z,0.42
2022-12-03T07:09:26.455Z,0.45
2022-12-03T07:11:58.627Z,0.48
2022-12-03T07:14:30.609Z,0.50
2022-12-03T07:17:02.671Z,0.51
2022-12-03T07:19:34.716Z,0.53
2022-12-03T07:22:05.792Z,0.54
2022-12-03T07:24:37.906Z,0.54
2022-12-03T07:27:08.381Z,0.51
2022-12-03T07:29:40.468Z,0.48
2022-12-03T07:32:11.028Z,0.48
2022-12-03T07:34:43.178Z,0.47
2022-12-03T07:37:14.054Z,0.46
2022-12-03T07:39:46.229Z,0.45
2022-12-03T07:42:18.372Z,0.43
2022-12-03T07:44:48.858Z,0.43
2022-12-03T07:47:20.967Z,0.43
2022-12-03T07:49:51.468Z,0.43
2022-12-03T07:52:23.640Z,0.43
2022-12-03T07:54:54.260Z,0.42
2022-12-03T07:57:26.703Z,0.41
2022-12-03T07:59:58.978Z,0.43
2022-12-03T08:02:31.057Z,0.47
2022-12-03T08:05:03.367Z,0.50
2022-12-03T08:07:37.012Z,0.53
2022-12-03T08:10:10.768Z,0.55
2022-12-03T08:12:42.938Z,0.59
2022-12-03T08:15:15.225Z,0.62
2022-12-03T08:17:48.749Z,0.66
2022-12-03T08:20:22.103Z,0.68
2022-12-03T08:22:55.153Z,0.71
2022-12-03T08:25:29.748Z,0.70
2022-12-03T08:28:12.112Z,0.72
2022-12-03T08:30:43.137Z,0.74
2022-12-03T08:33:23.164Z,0.74
2022-12-03T08:35:55.191Z,0.76
2022-12-03T08:38:26.099Z,0.77
2022-12-03T08:40:58.247Z,0.79
2022-12-03T08:43:36.717Z,0.82
2022-12-03T08:46:17.406Z,0.83
2022-12-03T08:48:49.862Z,0.85
2022-12-03T08:51:25.446Z,0.88
2022-12-03T08:54:04.812Z,0.92
2022-12-03T08:56:39.244Z,0.93
2022-12-03T08:59:25.740Z,0.94
2022-12-03T09:01:59.602Z,0.94
2022-12-03T09:04:38.140Z,0.96
2022-12-03T09:07:10.516Z,0.99
2022-12-03T09:09:42.943Z,1.00
2022-12-03T09:12:15.014Z,1.02
2022-12-03T09:14:48.537Z,1.02
2022-12-03T09:17:21.418Z,1.05
2022-12-03T09:19:53.954Z,1.08
2022-12-03T09:22:25.931Z,1.13
2022-12-03T09:24:58.932Z,1.16
2022-12-03T09:27:31.260Z,1.21
2022-12-03T09:30:03.423Z,1.23
2022-12-03T09:32:33.913Z,1.24
2022-12-03T09:35:10.634Z,1.24
2022-12-03T09:37:42.748Z,1.24
2022-12-03T09:40:16.546Z,1.24
2022-12-03T09:42:49.169Z,1.23
2022-12-03T09:45:21.464Z,1.26
2022-12-03T09:47:51.961Z,1.30
2022-12-03T09:50:26.439Z,1.31
2022-12-03T09:53:03.505Z,1.32
2022-12-03T09:55:35.973Z,1.33
2022-12-03T09:58:13.541Z,1.32
2022-12-03T10:00:48.811Z,1.34
2022-12-03T10:03:29.542Z,1.37
2022-12-03T10:06:02.029Z,1.38
2022-12-03T10:08:35.096Z,1.39
2022-12-03T10:11:07.616Z,1.42
2022-12-03T10:13:40.018Z,1.47
2022-12-03T10:16:15.525Z,1.52
2022-12-03T10:18:51.234Z,1.56
2022-12-03T10:21:27.344Z,1.58
2022-12-03T10:24:26.624Z,1.57
2022-12-03T10:29:57.492Z,1.59
2022-12-03T10:32:41.333Z,1.65
2022-12-03T10:35:15.814Z,1.71
2022-12-03T10:38:02.442Z,1.76
2022-12-03T10:40:36.556Z,1.78
2022-12-03T10:43:22.714Z,1.78
2022-12-03T10:46:13.270Z,1.81
2022-12-03T10:48:45.656Z,1.85
2022-12-03T10:51:21.353Z,1.90
2022-12-03T10:53:54.468Z,1.96
2022-12-03T10:56:50.418Z,2.01
2022-12-03T10:59:25.570Z,2.03
2022-12-03T11:04:48.292Z,2.06
2022-12-03T11:07:22.575Z,2.08
2022-12-03T11:09:58.939Z,2.13
2022-12-03T11:12:34.719Z,2.20
2022-12-03T11:15:15.761Z,2.27
2022-12-03T11:17:50.353Z,2.34
2022-12-03T11:21:05.543Z,2.39
2022-12-03T11:24:04.923Z,2.40
2022-12-03T11:27:18.206Z,2.36
2022-12-03T11:29:56.951Z,2.34
2022-12-03T11:33:09.190Z,2.37
2022-12-03T11:36:27.795Z,2.41
2022-12-03T11:39:11.158Z,2.45
2022-12-03T11:42:03.557Z,2.48
2022-12-03T11:44:36.981Z,2.48
2022-12-03T11:47:17.271Z,2.50
2022-12-03T11:49:52.678Z,2.51
2022-12-03T11:52:29.035Z,2.52
2022-12-03T11:55:06.944Z,2.54
2022-12-03T11:57:43.526Z,2.53
2022-12-03T12:00:27.185Z,2.52
2022-12-03T12:03:00.435Z,2.53
2022-12-03T12:05:35.776Z,2.51
2022-12-03T12:08:32.191Z,2.52
2022-12-03T12:11:29.872Z,2.54
2022-12-03T12:14:03.051Z,2.58
2022-12-03T12:16:50.546Z,2.59
2022-12-03T12:19:44.102Z,2.62
2022-12-03T12:22:18.778Z,2.62
2022-12-03T12:24:53.437Z,2.61
2022-12-03T12:27:32.452Z,2.61
2022-12-03T12:30:08.110Z,2.61
2022-12-03T12:32:47.336Z,2.56
2022-12-03T12:35:22.422Z,2.52
2022-12-03T12:38:00.197Z,2.50
2022-12-03T12:40:34.290Z,2.48
2022-12-03T12:43:18.889Z,2.47
2022-12-03T12:45:56.474Z,2.47
2022-12-03T12:48:32.376Z,2.47
2022-12-03T12:51:13.813Z,2.46
2022-12-03T12:53:46.133Z,2.45
2022-12-03T12:56:30.179Z,2.46
2022-12-03T12:59:13.457Z,2.48
2022-12-03T13:01:46.755Z,2.49
2022-12-03T13:04:22.155Z,2.50
2022-12-03T13:06:56.991Z,2.51
2022-12-03T13:09:30.991Z,2.49
2022-12-03T13:12:04.568Z,2.50
2022-12-03T13:14:38.720Z,2.51
2022-12-03T13:17:18.360Z,2.51
2022-12-03T13:19:58.233Z,2.50
2022-12-03T13:22:36.180Z,2.47
2022-12-03T13:25:58.867Z,2.47
2022-12-03T13:28:26.785Z,2.48
2022-12-03T13:31:02.854Z,2.50
2022-12-03T13:33:36.122Z,2.49
2022-12-03T13:36:15.156Z,2.48
2022-12-03T13:38:47.999Z,2.48
2022-12-03T13:41:39.921Z,2.48
2022-12-03T13:44:20.851Z,2.48
2022-12-03T13:46:53.170Z,2.46
2022-12-03T13:49:25.857Z,2.45
2022-12-03T13:51:58.206Z,2.44
2022-12-03T13:54:30.390Z,2.43
2022-12-03T13:57:05.199Z,2.41
2022-12-03T13:59:37.392Z,2.38
2022-12-03T14:02:10.159Z,2.35
2022-12-03T14:04:42.697Z,2.30
2022-12-03T14:07:15.271Z,2.26
2022-12-03T14:09:45.930Z,2.21
2022-12-03T14:12:26.840Z,2.17
2022-12-03T14:14:58.966Z,2.15
2022-12-03T14:17:31.558Z,2.15
2022-12-03T14:20:04.243Z,2.15
2022-12-03T14:22:38.140Z,2.16
2022-12-03T14:25:11.321Z,2.16
2022-12-03T14:27:43.463Z,2.17
2022-12-03T14:30:16.772Z,2.17
2022-12-03T14:32:48.949Z,2.16
2022-12-03T14:35:19.416Z,2.17
2022-12-03T14:37:52.388Z,2.13
2022-12-03T14:40:27.266Z,2.10
2022-12-03T14:42:59.500Z,2.07
2022-12-03T14:45:33.149Z,2.05
2022-12-03T14:48:05.551Z,2.06
2022-12-03T14:50:38.021Z,2.07
2022-12-03T14:53:08.783Z,2.09
2022-12-03T14:55:41.545Z,2.11
2022-12-03T14:58:13.598Z,2.14
2022-12-03T15:00:44.151Z,2.16
2022-12-03T15:03:17.716Z,2.16
2022-12-03T15:05:50.883Z,2.18
2022-12-03T15:08:23.886Z,2.19
2022-12-03T15:10:57.577Z,2.20
2022-12-03T15:13:30.885Z,2.20
2022-12-03T15:16:04.296Z,2.20
2022-12-03T15:18:36.515Z,2.20
2022-12-03T15:21:08.827Z,2.18
2022-12-03T15:23:41.355Z,2.16
2022-12-03T15:26:13.487Z,2.17
2022-12-03T15:28:48.103Z,2.17
2022-12-03T15:31:20.689Z,2.16
2022-12-03T15:33:52.992Z,2.17
2022-12-03T15:36:23.392Z,2.16
2022-12-03T15:38:56.516Z,2.15
2022-12-03T15:41:30.136Z,2.14
2022-12-03T15:44:02.925Z,2.13
2022-12-03T15:46:35.326Z,2.13
2022-12-03T15:49:07.484Z,2.12
2022-12-03T15:54:47.033Z,2.10
2022-12-03T15:57:19.193Z,2.07
2022-12-03T15:59:51.582Z,2.08
2022-12-03T16:02:24.342Z,2.08
2022-12-03T16:04:57.326Z,2.09
2022-12-03T16:07:30.408Z,2.09
2022-12-03T16:10:03.717Z,2.09
2022-12-03T16:12:35.858Z,2.07
2022-12-03T16:15:07.278Z,2.07
2022-12-03T16:17:39.285Z,2.07
2022-12-03T16:20:12.671Z,2.09
2022-12-03T16:22:44.709Z,2.11
2022-12-03T16:25:17.373Z,2.13
2022-12-03T16:27:49.480Z,2.15
2022-12-03T16:30:21.788Z,2.17
2022-12-03T16:32:53.803Z,2.17
2022-12-03T16:35:26.704Z,2.17
2022-12-03T16:37:59.488Z,2.17
2022-12-03T16:40:32.928Z,2.16
2022-12-03T16:43:05.154Z,2.15
2022-12-03T16:45:54.050Z,2.15
2022-12-03T16:48:27.157Z,2.14
2022-12-03T16:51:03.124Z,2.14
2022-12-03T16:53:35.353Z,2.15
2022-12-03T16:56:07.893Z,2.13
2022-12-03T16:58:40.072Z,2.12
2022-12-03T17:01:12.752Z,2.11
2022-12-03T17:03:45.055Z,2.10
2022-12-03T17:06:15.579Z,2.09
2022-12-03T17:08:49.875Z,2.05
2022-12-03T17:11:22.310Z,2.04
2022-12-03T17:13:54.241Z,2.03
2022-12-03T17:16:26.530Z,2.02
2022-12-03T17:18:58.857Z,2.02
2022-12-03T17:21:34.862Z,2.05
2022-12-03T17:24:07.983Z,2.06
2022-12-03T17:26:41.918Z,2.04
2022-12-03T17:29:14.286Z,2.05
2022-12-03T17:31:46.629Z,2.04
2022-12-03T17:34:18.705Z,2.03
2022-12-03T17:36:50.899Z,2.03
2022-12-03T17:39:23.202Z,2.02
2022-12-03T17:41:53.691Z,2.00
2022-12-03T17:44:25.864Z,1.98
2022-12-03T17:46:59.458Z,1.98
2022-12-03T17:49:32.052Z,1.95
2022-12-03T17:52:04.439Z,1.94
2022-12-03T17:54:55.561Z,1.93
2022-12-03T17:57:29.665Z,1.89
2022-12-03T18:00:01.736Z,1.87
2022-12-03T18:02:44.044Z,1.87
2022-12-03T18:05:16.300Z,1.85
2022-12-03T18:07:46.867Z,1.83
2022-12-03T18:10:19.593Z,1.81
2022-12-03T18:12:51.691Z,1.80
2022-12-03T18:15:23.741Z,1.79
2022-12-03T18:17:56.069Z,1.77
2022-12-03T18:20:28.182Z,1.76
2022-12-03T18:23:02.197Z,1.75
2022-12-03T18:25:34.738Z,1.74
2022-12-03T18:28:07.473Z,1.72
2022-12-03T18:30:39.594Z,1.69
2022-12-03T18:33:10.145Z,1.66
2022-12-03T18:35:42.948Z,1.63
2022-12-03T18:38:18.502Z,1.61
2022-12-03T18:40:54.855Z,1.61
2022-12-03T18:43:29.265Z,1.59
2022-12-03T18:46:04.588Z,1.57
2022-12-03T18:48:37.444Z,1.53
2022-12-03T18:51:17.268Z,1.56
2022-12-03T18:53:50.685Z,1.56
2022-12-03T18:56:23.473Z,1.56
2022-12-03T18:58:56.322Z,1.55
2022-12-03T19:01:30.425Z,1.55
2022-12-03T19:04:03.364Z,1.56
2022-12-03T19:06:36.053Z,1.56
2022-12-03T19:09:09.147Z,1.55
2022-12-03T19:11:41.908Z,1.54
2022-12-03T19:14:14.420Z,1.53
2022-12-03T19:16:47.178Z,1.54
2022-12-03T19:19:20.018Z,1.55
2022-12-03T19:21:52.088Z,1.59
2022-12-03T19:24:25.422Z,1.60
2022-12-03T19:26:58.548Z,1.61
2022-12-03T19:29:31.494Z,1.62
2022-12-03T19:32:04.389Z,1.66
2022-12-03T19:34:36.977Z,1.68
2022-12-03T19:37:09.440Z,1.69
2022-12-03T19:39:42.525Z,1.71
2022-12-03T19:42:15.854Z,1.71
2022-12-03T19:44:48.155Z,1.72
2022-12-03T19:47:21.151Z,1.74
2022-12-03T19:49:55.755Z,1.75
2022-12-03T19:52:28.148Z,1.75
2022-12-03T19:55:01.174Z,1.75
2022-12-03T19:57:33.238Z,1.75
2022-12-03T20:00:06.815Z,1.76
2022-12-03T20:02:44.380Z,1.77
2022-12-03T20:05:17.024Z,1.77
2022-12-03T20:07:49.090Z,1.77
2022-12-03T20:10:19.661Z,1.77
2022-12-03T20:12:51.647Z,1.74
2022-12-03T20:15:23.881Z,1.73
2022-12-03T20:17:55.230Z,1.73
2022-12-03T20:20:28.764Z,1.72
2022-12-03T20:23:01.846Z,1.70
2022-12-03T20:25:37.136Z,1.69
2022-12-03T20:28:10.775Z,1.69
2022-12-03T20:30:44.663Z,1.70
2022-12-03T20:33:17.415Z,1.70
2022-12-03T20:35:54.698Z,1.68
2022-12-03T20:38:29.004Z,1.69
2022-12-03T20:41:04.361Z,1.69
2022-12-03T20:43:37.902Z,1.71
2022-12-03T20:46:13.708Z,1.72
2022-12-03T20:48:47.105Z,1.73
2022-12-03T20:51:22.018Z,1.74
2022-12-03T20:53:54.853Z,1.76
2022-12-03T20:56:29.329Z,1.78
2022-12-03T20:59:05.407Z,1.79
2022-12-03T21:01:39.065Z,1.80
2022-12-03T21:04:14.746Z,1.82
2022-12-03T21:06:47.546Z,1.83
2022-12-03T21:09:19.674Z,1.86
2022-12-03T21:11:51.770Z,1.87
2022-12-03T21:14:22.387Z,1.87
2022-12-03T21:17:11.962Z,1.85
2022-12-03T21:19:44.348Z,1.85
2022-12-03T21:22:17.744Z,1.85
2022-12-03T21:24:49.867Z,1.85
2022-12-03T21:27:22.121Z,1.84
2022-12-03T21:29:55.275Z,1.83
2022-12-03T21:32:27.645Z,1.81
2022-12-03T21:34:59.790Z,1.80
2022-12-03T21:37:57.112Z,1.78
2022-12-03T21:40:29.320Z,1.76
2022-12-03T21:43:00.076Z,1.74
2022-12-03T21:45:32.441Z,1.70
2022-12-03T21:48:03.052Z,1.70
2022-12-03T21:50:35.525Z,1.69
2022-12-03T21:53:07.965Z,1.71
2022-12-03T21:55:41.483Z,1.70
2022-12-03T21:58:13.533Z,1.69
2022-12-03T22:00:44.116Z,1.68
2022-12-03T22:03:16.335Z,1.65
2022-12-03T22:05:46.726Z,1.64
2022-12-03T22:08:19.238Z,1.64
2022-12-03T22:10:51.360Z,1.64
2022-12-03T22:13:23.746Z,1.63
2022-12-03T22:15:55.802Z,1.61
2022-12-03T22:18:27.913Z,1.57
2022-12-03T22:20:59.958Z,1.56
2022-12-03T22:23:32.574Z,1.57
2022-12-03T22:26:07.151Z,1.58
2022-12-03T22:28:39.428Z,1.60
2022-12-03T22:31:12.257Z,1.63
2022-12-03T22:33:48.103Z,1.64
2022-12-03T22:36:21.985Z,1.67
2022-12-03T22:38:54.256Z,1.72
2022-12-03T22:41:26.317Z,1.73
2022-12-03T22:43:58.472Z,1.72
2022-12-03T22:46:29.108Z,1.71
2022-12-03T22:49:06.717Z,1.72
2022-12-03T22:51:39.472Z,1.74
2022-12-03T22:54:11.563Z,1.76
2022-12-03T22:56:43.721Z,1.78
2022-12-03T22:59:14.349Z,1.78
2022-12-03T23:01:46.411Z,1.77
2022-12-03T23:04:18.670Z,1.78
2022-12-03T23:06:50.949Z,1.80
2022-12-03T23:09:23.239Z,1.82
2022-12-03T23:11:55.323Z,1.85
2022-12-03T23:14:25.969Z,1.88
2022-12-03T23:16:58.279Z,1.89
2022-12-03T23:19:30.533Z,1.90
2022-12-03T23:22:01.013Z,1.88
2022-12-03T23:24:33.225Z,1.87
2022-12-03T23:27:03.696Z,1.88
2022-12-03T23:29:36.975Z,1.90
2022-12-03T23:32:09.057Z,1.93
2022-12-03T23:34:41.135Z,1.93
2022-12-03T23:37:11.564Z,1.95
2022-12-03T23:39:43.702Z,1.96
2022-12-03T23:42:14.360Z,1.98
2022-12-03T23:44:46.408Z,1.98
2022-12-03T23:47:17.091Z,1.98
2022-12-03T23:49:49.169Z,1.96
2022-12-03T23:52:21.324Z,1.94
2022-12-03T23:54:51.802Z,1.94
2022-12-03T23:57:23.939Z,1.93
2022-12-03T23:59:54.796Z,1.93
